sensor_id;sensor_type;location;lat;lon;timestamp;pressure;altitude;pressure_sealevel;temperature;humidity
6136;BME280;24008;42.664;23.372;2023-01-25T00:01:04;95841.78;;;0.76;100.00
6136;BME280;24008;42.664;23.372;2023-01-25T00:03:32;95845.13;;;0.76;100.00
6136;BME280;24008;42.664;23.372;2023-01-25T00:05:59;95850.19;;;0.75;100.00
6136;BME280;24008;42.664;23.372;2023-01-25T00:08:26;95805.03;;;0.48;100.00
6136;BME280;24008;42.664;23.372;2023-01-25T00:10:53;95816.63;;;0.52;100.00
6136;BME280;24008;42.664;23.372;2023-01-25T00:13:19;95851.06;;;0.73;100.00
6136;BME280;24008;42.664;23.372;2023-01-25T00:15:46;95850.19;;;0.75;100.00
6136;BME280;24008;42.664;23.372;2023-01-25T00:18:13;95838.38;;;0.77;100.00
6136;BME280;24008;42.664;23.372;2023-01-25T00:20:41;95848.47;;;0.77;100.00
6136;BME280;24008;42.664;23.372;2023-01-25T00:23:07;95764.06;;;0.21;100.00
6136;BME280;24008;42.664;23.372;2023-01-25T00:25:34;95838.63;;;0.70;100.00
6136;BME280;24008;42.664;23.372;2023-01-25T00:28:01;95834.41;;;0.71;100.00
6136;BME280;24008;42.664;23.372;2023-01-25T00:30:27;95847.03;;;0.69;100.00
6136;BME280;24008;42.664;23.372;2023-01-25T00:33:01;95638.63;;;-0.56;100.00
6136;BME280;24008;42.664;23.372;2023-01-25T00:35:33;95821.44;;;0.58;100.00
6136;BME280;24008;42.664;23.372;2023-01-25T00:38:05;95836.84;;;0.72;100.00
6136;BME280;24008;42.664;23.372;2023-01-25T00:40:48;95808.97;;;0.55;100.00
6136;BME280;24008;42.664;23.372;2023-01-25T00:43:14;95839.50;;;0.69;100.00
6136;BME280;24008;42.664;23.372;2023-01-25T00:45:41;95841.25;;;0.67;100.00
6136;BME280;24008;42.664;23.372;2023-01-25T00:48:08;95847.88;;;0.70;100.00
6136;BME280;24008;42.664;23.372;2023-01-25T00:50:37;95815.91;;;0.49;100.00
6136;BME280;24008;42.664;23.372;2023-01-25T00:53:06;95843.00;;;0.65;100.00
6136;BME280;24008;42.664;23.372;2023-01-25T00:55:33;95793.88;;;0.32;100.00
6136;BME280;24008;42.664;23.372;2023-01-25T00:57:59;95814.72;;;0.35;100.00
6136;BME280;24008;42.664;23.372;2023-01-25T01:00:26;95847.56;;;0.54;100.00
6136;BME280;24008;42.664;23.372;2023-01-25T01:02:53;95841.66;;;0.55;100.00
6136;BME280;24008;42.664;23.372;2023-01-25T01:05:20;95821.47;;;0.33;100.00
6136;BME280;24008;42.664;23.372;2023-01-25T01:07:48;95841.81;;;0.51;100.00
6136;BME280;24008;42.664;23.372;2023-01-25T01:10:16;95805.81;;;0.25;100.00
6136;BME280;24008;42.664;23.372;2023-01-25T01:12:43;95782.09;;;0.09;100.00
6136;BME280;24008;42.664;23.372;2023-01-25T01:15:10;95791.97;;;0.14;100.00
6136;BME280;24008;42.664;23.372;2023-01-25T01:17:36;95812.53;;;0.25;100.00
6136;BME280;24008;42.664;23.372;2023-01-25T01:20:04;95837.84;;;0.45;100.00
6136;BME280;24008;42.664;23.372;2023-01-25T01:22:31;95821.44;;;0.35;100.00
6136;BME280;24008;42.664;23.372;2023-01-25T01:24:57;95813.13;;;0.33;100.00
6136;BME280;24008;42.664;23.372;2023-01-25T01:27:26;95808.84;;;0.35;100.00
6136;BME280;24008;42.664;23.372;2023-01-25T01:29:52;95811.97;;;0.42;100.00
6136;BME280;24008;42.664;23.372;2023-01-25T01:32:19;95792.50;;;0.23;100.00
6136;BME280;24008;42.664;23.372;2023-01-25T01:34:46;95829.19;;;0.52;100.00
6136;BME280;24008;42.664;23.372;2023-01-25T01:37:12;95794.41;;;0.40;100.00
6136;BME280;24008;42.664;23.372;2023-01-25T01:39:39;95725.72;;;-0.09;100.00
6136;BME280;24008;42.664;23.372;2023-01-25T01:42:06;95792.19;;;0.32;100.00
6136;BME280;24008;42.664;23.372;2023-01-25T01:44:46;95822.53;;;0.51;100.00
6136;BME280;24008;42.664;23.372;2023-01-25T01:47:16;95818.31;;;0.52;100.00
6136;BME280;24008;42.664;23.372;2023-01-25T01:49:50;95814.94;;;0.53;100.00
6136;BME280;24008;42.664;23.372;2023-01-25T01:52:22;95812.41;;;0.53;100.00
6136;BME280;24008;42.664;23.372;2023-01-25T01:54:54;95795.13;;;0.44;100.00
6136;BME280;24008;42.664;23.372;2023-01-25T01:57:24;95817.06;;;0.63;100.00
6136;BME280;24008;42.664;23.372;2023-01-25T01:59:57;95814.59;;;0.62;100.00
6136;BME280;24008;42.664;23.372;2023-01-25T02:02:25;95818.69;;;0.64;100.00
6136;BME280;24008;42.664;23.372;2023-01-25T02:04:59;95818.38;;;0.73;100.00
6136;BME280;24008;42.664;23.372;2023-01-25T02:07:31;95826.03;;;0.70;100.00
6136;BME280;24008;42.664;23.372;2023-01-25T02:09:59;95782.28;;;0.51;100.00
6136;BME280;24008;42.664;23.372;2023-01-25T02:12:27;95814.16;;;0.74;100.00
6136;BME280;24008;42.664;23.372;2023-01-25T02:14:55;95817.53;;;0.73;100.00
6136;BME280;24008;42.664;23.372;2023-01-25T02:17:26;95787.53;;;0.45;100.00
6136;BME280;24008;42.664;23.372;2023-01-25T02:19:57;95813.47;;;0.70;100.00
6136;BME280;24008;42.664;23.372;2023-01-25T02:22:31;95813.47;;;0.70;100.00
6136;BME280;24008;42.664;23.372;2023-01-25T02:25:05;95820.13;;;0.71;100.00
6136;BME280;24008;42.664;23.372;2023-01-25T02:27:34;95825.03;;;0.75;100.00
6136;BME280;24008;42.664;23.372;2023-01-25T02:30:04;95789.81;;;0.51;100.00
6136;BME280;24008;42.664;23.372;2023-01-25T02:32:31;95817.06;;;0.63;100.00
6136;BME280;24008;42.664;23.372;2023-01-25T02:34:58;95732.75;;;0.07;100.00
6136;BME280;24008;42.664;23.372;2023-01-25T02:37:25;95792.47;;;0.48;100.00
6136;BME280;24008;42.664;23.372;2023-01-25T02:39:52;95822.22;;;0.60;100.00
6136;BME280;24008;42.664;23.372;2023-01-25T02:42:20;95813.84;;;0.60;100.00
6136;BME280;24008;42.664;23.372;2023-01-25T02:44:47;95814.59;;;0.62;100.00
6136;BME280;24008;42.664;23.372;2023-01-25T02:47:15;95770.13;;;0.39;100.00
6136;BME280;24008;42.664;23.372;2023-01-25T02:49:42;95777.47;;;0.45;100.00
6136;BME280;24008;42.664;23.372;2023-01-25T02:52:09;95788.94;;;0.52;100.00
6136;BME280;24008;42.664;23.372;2023-01-25T02:54:36;95806.88;;;0.66;100.00
6136;BME280;24008;42.664;23.372;2023-01-25T02:57:03;95813.56;;;0.67;100.00
6136;BME280;24008;42.664;23.372;2023-01-25T02:59:31;95713.31;;;0.12;100.00
6136;BME280;24008;42.664;23.372;2023-01-25T03:01:57;95813.47;;;0.70;100.00
6136;BME280;24008;42.664;23.372;2023-01-25T03:04:24;95779.13;;;0.46;100.00
6136;BME280;24008;42.664;23.372;2023-01-25T03:06:51;95810.19;;;0.68;100.00
6136;BME280;24008;42.664;23.372;2023-01-25T03:09:17;95811.09;;;0.66;100.00
6136;BME280;24008;42.664;23.372;2023-01-25T03:11:44;95811.25;;;0.61;100.00
6136;BME280;24008;42.664;23.372;2023-01-25T03:14:11;95784.78;;;0.51;100.00
6136;BME280;24008;42.664;23.372;2023-01-25T03:16:39;95810.38;;;0.62;100.00
6136;BME280;24008;42.664;23.372;2023-01-25T03:19:05;95810.19;;;0.68;100.00
6136;BME280;24008;42.664;23.372;2023-01-25T03:21:32;95767.63;;;0.39;100.00
6136;BME280;24008;42.664;23.372;2023-01-25T03:24:00;95736.25;;;0.26;100.00
6136;BME280;24008;42.664;23.372;2023-01-25T03:26:28;95736.97;;;0.29;100.00
6136;BME280;24008;42.664;23.372;2023-01-25T03:28:55;95739.53;;;0.28;100.00
6136;BME280;24008;42.664;23.372;2023-01-25T03:31:22;95712.63;;;0.07;100.00
6136;BME280;24008;42.664;23.372;2023-01-25T03:33:50;95769.25;;;0.40;100.00
6136;BME280;24008;42.664;23.372;2023-01-25T03:36:17;95808.63;;;0.64;100.00
6136;BME280;24008;42.664;23.372;2023-01-25T03:38:44;95766.81;;;0.39;100.00
6136;BME280;24008;42.664;23.372;2023-01-25T03:41:11;95813.47;;;0.70;100.00
6136;BME280;24008;42.664;23.372;2023-01-25T03:43:39;95806.03;;;0.67;100.00
6136;BME280;24008;42.664;23.372;2023-01-25T03:46:06;95782.28;;;0.51;100.00
6136;BME280;24008;42.664;23.372;2023-01-25T03:48:32;95803.50;;;0.67;100.00
6136;BME280;24008;42.664;23.372;2023-01-25T03:51:01;95802.63;;;0.68;100.00
6136;BME280;24008;42.664;23.372;2023-01-25T03:53:28;95802.53;;;0.71;100.00
6136;BME280;24008;42.664;23.372;2023-01-25T03:55:57;95800.94;;;0.69;100.00
6136;BME280;24008;42.664;23.372;2023-01-25T03:58:24;95803.72;;;0.61;100.00
6136;BME280;24008;42.664;23.372;2023-01-25T04:00:53;95777.44;;;0.47;100.00
6136;BME280;24008;42.664;23.372;2023-01-25T04:03:20;95799.41;;;0.65;100.00
6136;BME280;24008;42.664;23.372;2023-01-25T04:05:47;95797.06;;;0.60;100.00
6136;BME280;24008;42.664;23.372;2023-01-25T04:08:15;95770.69;;;0.47;100.00
6136;BME280;24008;42.664;23.372;2023-01-25T04:10:42;95790.31;;;0.61;100.00
6136;BME280;24008;42.664;23.372;2023-01-25T04:13:10;95773.97;;;0.49;100.00
6136;BME280;24008;42.664;23.372;2023-01-25T04:15:37;95791.78;;;0.66;100.00
6136;BME280;24008;42.664;23.372;2023-01-25T04:18:03;95791.56;;;0.72;100.00
6136;BME280;24008;42.664;23.372;2023-01-25T04:20:30;95783.91;;;0.76;100.00
6136;BME280;24008;42.664;23.372;2023-01-25T04:22:57;95743.91;;;0.46;99.80
6136;BME280;24008;42.664;23.372;2023-01-25T04:25:25;95787.25;;;0.76;99.64
6136;BME280;24008;42.664;23.372;2023-01-25T04:27:52;95784.09;;;0.71;99.17
6136;BME280;24008;42.664;23.372;2023-01-25T04:30:19;95790.78;;;0.72;99.51
6136;BME280;24008;42.664;23.372;2023-01-25T04:32:46;95792.31;;;0.75;99.14
6136;BME280;24008;42.664;23.372;2023-01-25T04:35:12;95738.22;;;0.41;99.34
6136;BME280;24008;42.664;23.372;2023-01-25T04:37:39;95764.50;;;0.56;98.69
6136;BME280;24008;42.664;23.372;2023-01-25T04:40:06;95800.75;;;0.73;98.29
6136;BME280;24008;42.664;23.372;2023-01-25T04:42:35;95796.59;;;0.72;98.09
6136;BME280;24008;42.664;23.372;2023-01-25T04:45:02;95791.91;;;0.63;97.44
6136;BME280;24008;42.664;23.372;2023-01-25T04:47:28;95807.44;;;0.75;97.39
6136;BME280;24008;42.664;23.372;2023-01-25T04:49:55;95741.06;;;0.32;97.20
6136;BME280;24008;42.664;23.372;2023-01-25T04:52:22;95806.66;;;0.72;97.15
6136;BME280;24008;42.664;23.372;2023-01-25T04:54:48;95772.34;;;0.48;96.43
6136;BME280;24008;42.664;23.372;2023-01-25T04:57:15;95683.69;;;-0.04;96.10
6136;BME280;24008;42.664;23.372;2023-01-25T04:59:43;95781.59;;;0.48;95.75
6136;BME280;24008;42.664;23.372;2023-01-25T05:02:10;95808.63;;;0.64;95.74
6136;BME280;24008;42.664;23.372;2023-01-25T05:04:37;95798.69;;;0.61;95.46
6136;BME280;24008;42.664;23.372;2023-01-25T05:07:04;95803.41;;;0.47;95.20
6136;BME280;24008;42.664;23.372;2023-01-25T05:09:30;95779.44;;;0.37;95.12
6136;BME280;24008;42.664;23.372;2023-01-25T05:11:57;95802.41;;;0.51;95.78
6136;BME280;24008;42.664;23.372;2023-01-25T05:14:24;95743.91;;;0.23;96.25
6136;BME280;24008;42.664;23.372;2023-01-25T05:16:52;95735.81;;;0.15;96.33
6136;BME280;24008;42.664;23.372;2023-01-25T05:19:19;95794.84;;;0.51;96.60
6136;BME280;24008;42.664;23.372;2023-01-25T05:21:45;95747.94;;;0.27;96.39
6136;BME280;24008;42.664;23.372;2023-01-25T05:24:24;95731.00;;;0.09;96.41
6136;BME280;24008;42.664;23.372;2023-01-25T05:26:52;95751.56;;;0.20;96.44
6136;BME280;24008;42.664;23.372;2023-01-25T05:29:29;95789.28;;;0.43;96.91
6136;BME280;24008;42.664;23.372;2023-01-25T05:31:58;95720.59;;;-0.06;97.13
6136;BME280;24008;42.664;23.372;2023-01-25T05:34:24;95791.94;;;0.39;96.58
6136;BME280;24008;42.664;23.372;2023-01-25T05:36:52;95799.34;;;0.43;96.38
6136;BME280;24008;42.664;23.372;2023-01-25T05:39:19;95796.16;;;0.38;95.35
6136;BME280;24008;42.664;23.372;2023-01-25T05:41:46;95750.25;;;0.10;95.33
6136;BME280;24008;42.664;23.372;2023-01-25T05:44:12;95795.19;;;0.42;95.02
6136;BME280;24008;42.664;23.372;2023-01-25T05:46:39;95799.25;;;0.46;95.01
6136;BME280;24008;42.664;23.372;2023-01-25T05:49:07;95804.28;;;0.46;95.01
6136;BME280;24008;42.664;23.372;2023-01-25T05:51:34;95804.22;;;0.48;94.88
6136;BME280;24008;42.664;23.372;2023-01-25T05:54:03;95810.81;;;0.50;94.80
6136;BME280;24008;42.664;23.372;2023-01-25T05:56:30;95806.59;;;0.51;93.59
6136;BME280;24008;42.664;23.372;2023-01-25T05:58:59;95805.78;;;0.50;93.25
6136;BME280;24008;42.664;23.372;2023-01-25T06:01:26;95776.38;;;0.29;92.85
6136;BME280;24008;42.664;23.372;2023-01-25T06:03:54;95804.28;;;0.46;92.10
6136;BME280;24008;42.664;23.372;2023-01-25T06:06:22;95804.13;;;0.49;92.18
6136;BME280;24008;42.664;23.372;2023-01-25T06:08:49;95693.66;;;-0.25;91.47
6136;BME280;24008;42.664;23.372;2023-01-25T06:11:18;95803.31;;;0.49;91.85
6136;BME280;24008;42.664;23.372;2023-01-25T06:13:45;95812.78;;;0.42;92.23
6136;BME280;24008;42.664;23.372;2023-01-25T06:16:12;95776.03;;;0.15;92.62
6136;BME280;24008;42.664;23.372;2023-01-25T06:18:39;95702.47;;;-0.39;92.84
6136;BME280;24008;42.664;23.372;2023-01-25T06:21:06;95780.81;;;0.22;93.55
6136;BME280;24008;42.664;23.372;2023-01-25T06:23:34;95814.34;;;0.46;93.39
6136;BME280;24008;42.664;23.372;2023-01-25T06:26:03;95807.59;;;0.47;93.49
6136;BME280;24008;42.664;23.372;2023-01-25T06:28:31;95815.97;;;0.47;93.61
6136;BME280;24008;42.664;23.372;2023-01-25T06:31:03;95793.00;;;0.33;93.97
6136;BME280;24008;42.664;23.372;2023-01-25T06:33:29;95797.94;;;0.36;93.97
6136;BME280;24008;42.664;23.372;2023-01-25T06:35:59;95819.13;;;0.52;93.43
6136;BME280;24008;42.664;23.372;2023-01-25T06:38:25;95751.75;;;0.14;92.93
6136;BME280;24008;42.664;23.372;2023-01-25T06:40:58;95809.91;;;0.53;93.05
6136;BME280;24008;42.664;23.372;2023-01-25T06:43:24;95812.47;;;0.51;92.64
6136;BME280;24008;42.664;23.372;2023-01-25T06:45:51;95815.91;;;0.49;92.73
6136;BME280;24008;42.664;23.372;2023-01-25T06:48:18;95818.25;;;0.53;93.00
6136;BME280;24008;42.664;23.372;2023-01-25T06:50:45;95817.38;;;0.54;93.05
6136;BME280;24008;42.664;23.372;2023-01-25T06:53:11;95782.06;;;0.34;93.14
6136;BME280;24008;42.664;23.372;2023-01-25T06:55:38;95821.69;;;0.51;93.25
6136;BME280;24008;42.664;23.372;2023-01-25T06:58:06;95821.69;;;0.51;93.08
6136;BME280;24008;42.664;23.372;2023-01-25T07:00:33;95720.81;;;-0.12;93.15
6136;BME280;24008;42.664;23.372;2023-01-25T07:02:59;95728.13;;;-0.06;93.00
6136;BME280;24008;42.664;23.372;2023-01-25T07:05:26;95709.34;;;-0.19;92.92
6136;BME280;24008;42.664;23.372;2023-01-25T07:07:53;95817.50;;;0.51;93.34
6136;BME280;24008;42.664;23.372;2023-01-25T07:10:20;95815.84;;;0.50;92.89
6136;BME280;24008;42.664;23.372;2023-01-25T07:12:46;95807.56;;;0.48;93.03
6136;BME280;24008;42.664;23.372;2023-01-25T07:15:15;95821.06;;;0.46;93.36
6136;BME280;24008;42.664;23.372;2023-01-25T07:17:41;95822.75;;;0.45;93.94
6136;BME280;24008;42.664;23.372;2023-01-25T07:20:09;95593.25;;;-1.00;93.86
6136;BME280;24008;42.664;23.372;2023-01-25T07:22:36;95807.28;;;0.56;94.04
6136;BME280;24008;42.664;23.372;2023-01-25T07:25:03;95825.97;;;0.49;93.79
6136;BME280;24008;42.664;23.372;2023-01-25T07:27:32;95821.75;;;0.49;94.63
6136;BME280;24008;42.664;23.372;2023-01-25T07:29:59;95782.38;;;0.25;94.25
6136;BME280;24008;42.664;23.372;2023-01-25T07:32:27;95829.97;;;0.54;94.42
6136;BME280;24008;42.664;23.372;2023-01-25T07:34:54;95760.75;;;0.21;94.34
6136;BME280;24008;42.664;23.372;2023-01-25T07:37:21;95765.09;;;0.16;94.21
6136;BME280;24008;42.664;23.372;2023-01-25T07:39:47;95822.31;;;0.57;94.00
6136;BME280;24008;42.664;23.372;2023-01-25T07:42:15;95786.44;;;0.29;93.75
6136;BME280;24008;42.664;23.372;2023-01-25T07:44:42;95688.09;;;-0.35;94.34
6136;BME280;24008;42.664;23.372;2023-01-25T07:47:08;95834.75;;;0.37;95.79
6136;BME280;24008;42.664;23.372;2023-01-25T07:49:36;95827.78;;;0.45;95.89
6136;BME280;24008;42.664;23.372;2023-01-25T07:52:03;95829.19;;;0.52;96.35
6136;BME280;24008;42.664;23.372;2023-01-25T07:54:30;95738.97;;;-0.04;96.08
6136;BME280;24008;42.664;23.372;2023-01-25T07:57:00;95584.06;;;-1.01;96.18
6136;BME280;24008;42.664;23.372;2023-01-25T07:59:27;95833.22;;;0.58;96.48
6136;BME280;24008;42.664;23.372;2023-01-25T08:01:55;95836.53;;;0.58;96.86
6136;BME280;24008;42.664;23.372;2023-01-25T08:04:22;95796.34;;;0.33;96.58
6136;BME280;24008;42.664;23.372;2023-01-25T08:06:50;95727.38;;;-0.08;96.85
6136;BME280;24008;42.664;23.372;2023-01-25T08:09:17;95824.94;;;0.54;96.96
6136;BME280;24008;42.664;23.372;2023-01-25T08:11:45;95799.44;;;0.40;97.65
6136;BME280;24008;42.664;23.372;2023-01-25T08:14:13;95790.09;;;0.44;97.81
6136;BME280;24008;42.664;23.372;2023-01-25T08:16:40;95821.31;;;0.61;97.67
6136;BME280;24008;42.664;23.372;2023-01-25T08:19:08;95819.75;;;0.59;97.68
6136;BME280;24008;42.664;23.372;2023-01-25T08:21:36;95827.13;;;0.63;98.18
6136;BME280;24008;42.664;23.372;2023-01-25T08:24:07;95821.22;;;0.64;98.70
6136;BME280;24008;42.664;23.372;2023-01-25T08:26:35;95791.66;;;0.48;98.40
6136;BME280;24008;42.664;23.372;2023-01-25T08:29:02;95811.63;;;0.74;98.06
6136;BME280;24008;42.664;23.372;2023-01-25T08:31:31;95757.47;;;0.42;98.10
6136;BME280;24008;42.664;23.372;2023-01-25T08:33:58;95817.50;;;0.75;98.39
6136;BME280;24008;42.664;23.372;2023-01-25T08:36:28;95788.19;;;0.50;98.50
6136;BME280;24008;42.664;23.372;2023-01-25T08:38:56;95787.09;;;0.57;98.89
6136;BME280;24008;42.664;23.372;2023-01-25T08:41:26;95813.13;;;0.80;98.64
6136;BME280;24008;42.664;23.372;2023-01-25T08:43:54;95815.50;;;0.84;98.29
6136;BME280;24008;42.664;23.372;2023-01-25T08:46:22;95807.84;;;0.86;98.62
6136;BME280;24008;42.664;23.372;2023-01-25T08:48:52;95811.84;;;0.91;98.77
6136;BME280;24008;42.664;23.372;2023-01-25T08:51:19;95645.31;;;-0.09;98.44
6136;BME280;24008;42.664;23.372;2023-01-25T08:53:46;95707.72;;;0.27;99.10
6136;BME280;24008;42.664;23.372;2023-01-25T08:56:15;95811.03;;;0.91;98.63
6136;BME280;24008;42.664;23.372;2023-01-25T08:58:44;95801.69;;;0.94;98.91
6136;BME280;24008;42.664;23.372;2023-01-25T09:01:14;95743.19;;;0.43;98.40
6136;BME280;24008;42.664;23.372;2023-01-25T09:03:45;95811.81;;;0.93;98.73
6136;BME280;24008;42.664;23.372;2023-01-25T09:06:16;95817.72;;;0.92;98.87
6136;BME280;24008;42.664;23.372;2023-01-25T09:08:44;95752.75;;;0.56;99.16
6136;BME280;24008;42.664;23.372;2023-01-25T09:11:12;95784.91;;;0.71;99.70
6136;BME280;24008;42.664;23.372;2023-01-25T09:13:39;95771.22;;;0.79;100.00
6136;BME280;24008;42.664;23.372;2023-01-25T09:16:10;95773.78;;;0.77;100.00
6136;BME280;24008;42.664;23.372;2023-01-25T09:18:39;95683.28;;;0.30;100.00
6136;BME280;24008;42.664;23.372;2023-01-25T09:21:07;95585.56;;;-0.24;100.00
6136;BME280;24008;42.664;23.372;2023-01-25T09:23:34;95759.81;;;0.92;100.00
6136;BME280;24008;42.664;23.372;2023-01-25T09:26:03;95749.91;;;0.87;100.00
6136;BME280;24008;42.664;23.372;2023-01-25T09:28:31;95793.47;;;1.11;100.00
6136;BME280;24008;42.664;23.372;2023-01-25T09:30:59;95755.00;;;0.86;100.00
6136;BME280;24008;42.664;23.372;2023-01-25T09:33:30;95683.66;;;0.43;100.00
6136;BME280;24008;42.664;23.372;2023-01-25T09:35:57;95774.41;;;1.05;100.00
6136;BME280;24008;42.664;23.372;2023-01-25T09:38:24;95776.16;;;1.03;100.00
6136;BME280;24008;42.664;23.372;2023-01-25T09:40:58;95524.75;;;-0.55;100.00
6136;BME280;24008;42.664;23.372;2023-01-25T09:43:39;95772.47;;;1.12;100.00
6136;BME280;24008;42.664;23.372;2023-01-25T09:46:18;95762.84;;;1.22;100.00
6136;BME280;24008;42.664;23.372;2023-01-25T09:48:55;95727.91;;;1.14;100.00
6136;BME280;24008;42.664;23.372;2023-01-25T09:51:25;95754.72;;;1.37;97.85
6136;BME280;24008;42.664;23.372;2023-01-25T09:53:55;95756.13;;;1.44;96.30
6136;BME280;24008;42.664;23.372;2023-01-25T09:56:25;95717.25;;;1.29;94.88
6136;BME280;24008;42.664;23.372;2023-01-25T09:58:56;95687.63;;;1.14;94.18
6136;BME280;24008;42.664;23.372;2023-01-25T10:01:27;95671.13;;;1.07;92.69
6136;BME280;24008;42.664;23.372;2023-01-25T10:04:00;95734.50;;;1.59;91.59
6136;BME280;24008;42.664;23.372;2023-01-25T10:06:37;95661.72;;;1.32;91.04
6136;BME280;24008;42.664;23.372;2023-01-25T10:09:12;95726.81;;;1.82;90.35
6136;BME280;24008;42.664;23.372;2023-01-25T10:11:43;95723.22;;;1.88;89.04
6136;BME280;24008;42.664;23.372;2023-01-25T10:14:13;95727.34;;;1.90;88.93
6136;BME280;24008;42.664;23.372;2023-01-25T10:16:49;95683.88;;;1.65;88.04
6136;BME280;24008;42.664;23.372;2023-01-25T10:19:26;95713.91;;;1.90;87.85
6136;BME280;24008;42.664;23.372;2023-01-25T10:21:57;95711.50;;;1.87;87.25
6136;BME280;24008;42.664;23.372;2023-01-25T10:24:53;95679.19;;;1.76;87.15
6136;BME280;24008;42.664;23.372;2023-01-25T10:27:28;95702.88;;;1.92;85.94
6136;BME280;24008;42.664;23.372;2023-01-25T10:30:19;95401.53;;;-0.07;84.55
6136;BME280;24008;42.664;23.372;2023-01-25T10:32:47;95691.00;;;1.94;84.40
6136;BME280;24008;42.664;23.372;2023-01-25T10:35:21;95694.28;;;1.96;83.85
6136;BME280;24008;42.664;23.372;2023-01-25T10:37:49;95611.94;;;1.58;83.86
6136;BME280;24008;42.664;23.372;2023-01-25T10:40:20;95690.47;;;2.06;82.85
6136;BME280;24008;42.664;23.372;2023-01-25T10:42:53;95687.09;;;2.07;83.13
6136;BME280;24008;42.664;23.372;2023-01-25T10:45:21;95680.97;;;2.13;82.09
6136;BME280;24008;42.664;23.372;2023-01-25T10:47:51;95577.34;;;1.42;81.40
6136;BME280;24008;42.664;23.372;2023-01-25T10:50:44;95672.72;;;2.09;80.96
6136;BME280;24008;42.664;23.372;2023-01-25T10:53:27;95640.34;;;2.00;80.75
6136;BME280;24008;42.664;23.372;2023-01-25T10:55:59;95668.56;;;2.27;80.77
6136;BME280;24008;42.664;23.372;2023-01-25T10:58:33;95659.91;;;2.33;81.39
6136;BME280;24008;42.664;23.372;2023-01-25T11:01:01;95651.91;;;2.42;80.72
6136;BME280;24008;42.664;23.372;2023-01-25T11:03:36;95657.25;;;2.36;80.14
6136;BME280;24008;42.664;23.372;2023-01-25T11:06:05;95553.72;;;1.83;80.33
6136;BME280;24008;42.664;23.372;2023-01-25T11:08:35;95545.03;;;1.90;79.28
6136;BME280;24008;42.664;23.372;2023-01-25T11:11:22;95645.16;;;2.61;79.04
6136;BME280;24008;42.664;23.372;2023-01-25T11:13:50;95673.81;;;2.60;78.92
6136;BME280;24008;42.664;23.372;2023-01-25T11:16:39;95613.34;;;2.40;78.82
6136;BME280;24008;42.664;23.372;2023-01-25T11:19:24;95605.63;;;2.43;78.62
6136;BME280;24008;42.664;23.372;2023-01-25T11:21:54;95610.47;;;2.47;78.29
6136;BME280;24008;42.664;23.372;2023-01-25T11:24:25;95600.72;;;2.40;78.22
6136;BME280;24008;42.664;23.372;2023-01-25T11:27:12;95625.34;;;2.53;78.76
6136;BME280;24008;42.664;23.372;2023-01-25T11:29:39;95627.56;;;2.60;79.59
6136;BME280;24008;42.664;23.372;2023-01-25T11:32:15;95574.94;;;2.33;78.19
6136;BME280;24008;42.664;23.372;2023-01-25T11:34:46;95593.88;;;2.42;78.32
6136;BME280;24008;42.664;23.372;2023-01-25T11:37:36;95632.00;;;2.54;78.98
6136;BME280;24008;42.664;23.372;2023-01-25T11:40:14;95572.47;;;2.14;78.49
6136;BME280;24008;42.664;23.372;2023-01-25T11:42:54;95570.22;;;2.08;79.73
6136;BME280;24008;42.664;23.372;2023-01-25T11:45:48;95607.19;;;2.45;79.75
6136;BME280;24008;42.664;23.372;2023-01-25T11:48:57;95588.84;;;2.42;79.08
6136;BME280;24008;42.664;23.372;2023-01-25T11:51:31;95596.69;;;2.36;79.87
6136;BME280;24008;42.664;23.372;2023-01-25T11:54:15;95553.63;;;2.22;79.60
6136;BME280;24008;42.664;23.372;2023-01-25T11:56:53;95588.25;;;2.37;79.00
6136;BME280;24008;42.664;23.372;2023-01-25T11:59:39;95585.72;;;2.37;79.78
6136;BME280;24008;42.664;23.372;2023-01-25T12:02:24;95576.97;;;2.44;79.82
6136;BME280;24008;42.664;23.372;2023-01-25T12:05:15;95587.81;;;2.46;79.78
6136;BME280;24008;42.664;23.372;2023-01-25T12:07:52;95536.41;;;2.12;80.20
6136;BME280;24008;42.664;23.372;2023-01-25T12:10:27;95526.69;;;2.05;80.47
6136;BME280;24008;42.664;23.372;2023-01-25T12:13:01;95571.53;;;2.34;80.02
6136;BME280;24008;42.664;23.372;2023-01-25T12:15:49;95571.59;;;2.33;80.76
6136;BME280;24008;42.664;23.372;2023-01-25T12:21:23;95556.03;;;2.25;81.22
6136;BME280;24008;42.664;23.372;2023-01-25T12:24:10;95568.88;;;2.37;80.79
6136;BME280;24008;42.664;23.372;2023-01-25T12:26:48;95568.06;;;2.37;80.77
6136;BME280;24008;42.664;23.372;2023-01-25T12:29:24;95414.63;;;1.38;80.95
6136;BME280;24008;42.664;23.372;2023-01-25T12:31:55;95504.47;;;1.94;80.85
6136;BME280;24008;42.664;23.372;2023-01-25T12:34:30;95527.06;;;2.14;80.95
6136;BME280;24008;42.664;23.372;2023-01-25T12:37:04;95553.50;;;2.25;80.78
6136;BME280;24008;42.664;23.372;2023-01-25T12:39:36;95550.34;;;2.20;81.07
6136;BME280;24008;42.664;23.372;2023-01-25T12:42:13;95517.81;;;1.96;81.85
6136;BME280;24008;42.664;23.372;2023-01-25T12:44:45;95551.72;;;2.27;81.84
6136;BME280;24008;42.664;23.372;2023-01-25T12:47:17;95549.97;;;2.29;80.93
6136;BME280;24008;42.664;23.372;2023-01-25T12:49:47;95553.06;;;2.34;80.64
6136;BME280;24008;42.664;23.372;2023-01-25T12:52:22;95546.38;;;2.33;80.27
6136;BME280;24008;42.664;23.372;2023-01-25T12:54:52;95544.91;;;2.29;80.71
6136;BME280;24008;42.664;23.372;2023-01-25T12:57:25;95445.38;;;1.64;80.92
6136;BME280;24008;42.664;23.372;2023-01-25T13:00:01;95513.97;;;2.06;81.47
6136;BME280;24008;42.664;23.372;2023-01-25T13:02:46;95462.41;;;1.77;80.34
6136;BME280;24008;42.664;23.372;2023-01-25T13:05:24;95504.13;;;2.02;80.16
6136;BME280;24008;42.664;23.372;2023-01-25T13:07:58;95530.19;;;2.20;80.81
6136;BME280;24008;42.664;23.372;2023-01-25T13:10:32;95423.34;;;1.50;81.22
6136;BME280;24008;42.664;23.372;2023-01-25T13:13:17;95451.19;;;1.66;81.52
6136;BME280;24008;42.664;23.372;2023-01-25T13:15:46;95469.06;;;1.78;81.81
6136;BME280;24008;42.664;23.372;2023-01-25T13:18:34;95520.25;;;2.16;82.01
6136;BME280;24008;42.664;23.372;2023-01-25T13:21:04;95534.28;;;2.22;80.99
6136;BME280;24008;42.664;23.372;2023-01-25T13:23:34;95443.63;;;1.66;81.05
6136;BME280;24008;42.664;23.372;2023-01-25T13:26:37;95507.16;;;2.08;81.58